sensor_id;sensor_type;location;lat;lon;timestamp;pressure;altitude;pressure_sealevel;temperature;humidity
66560;BME280;53413;49.878;8.142;2024-02-14T00:01:42;100311.00;;;9.27;82.67
66560;BME280;53413;49.878;8.142;2024-02-14T00:04:08;100292.66;;;9.28;82.49
66560;BME280;53413;49.878;8.142;2024-02-14T00:06:36;100303.03;;;9.31;82.78
66560;BME280;53413;49.878;8.142;2024-02-14T00:09:02;100286.50;;;9.31;82.39
66560;BME280;53413;49.878;8.142;2024-02-14T00:11:28;100285.59;;;9.32;82.40
66560;BME280;53413;49.878;8.142;2024-02-14T00:13:53;100282.97;;;9.32;82.28
66560;BME280;53413;49.878;8.142;2024-02-14T00:16:21;100274.19;;;9.33;82.38
66560;BME280;53413;49.878;8.142;2024-02-14T00:18:46;100275.03;;;9.35;82.41
66560;BME280;53413;49.878;8.142;2024-02-14T00:21:12;100268.88;;;9.36;81.95
66560;BME280;53413;49.878;8.142;2024-02-14T00:23:38;100276.72;;;9.37;82.08
66560;BME280;53413;49.878;8.142;2024-02-14T00:26:03;100265.28;;;9.40;81.97
66560;BME280;53413;49.878;8.142;2024-02-14T00:28:29;100270.47;;;9.42;82.12
66560;BME280;53413;49.878;8.142;2024-02-14T00:30:54;100274.03;;;9.39;81.97
66560;BME280;53413;49.878;8.142;2024-02-14T00:33:19;100271.47;;;9.37;82.33
66560;BME280;53413;49.878;8.142;2024-02-14T00:35:46;100273.16;;;9.38;82.96
66560;BME280;53413;49.878;8.142;2024-02-14T00:38:11;100273.22;;;9.37;82.93
66560;BME280;53413;49.878;8.142;2024-02-14T00:40:37;100267.16;;;9.36;83.10
66560;BME280;53413;49.878;8.142;2024-02-14T00:43:03;100273.22;;;9.37;83.63
66560;BME280;53413;49.878;8.142;2024-02-14T00:45:28;100263.66;;;9.36;84.00
66560;BME280;53413;49.878;8.142;2024-02-14T00:47:53;100262.00;;;9.33;84.60
66560;BME280;53413;49.878;8.142;2024-02-14T00:50:19;100261.94;;;9.35;84.57
66560;BME280;53413;49.878;8.142;2024-02-14T00:52:44;100251.47;;;9.35;84.83
66560;BME280;53413;49.878;8.142;2024-02-14T00:55:09;100255.00;;;9.34;84.66
66560;BME280;53413;49.878;8.142;2024-02-14T00:57:35;100248.09;;;9.31;85.20
66560;BME280;53413;49.878;8.142;2024-02-14T01:00:00;100250.78;;;9.30;85.02
66560;BME280;53413;49.878;8.142;2024-02-14T01:02:26;100252.53;;;9.29;85.38
66560;BME280;53413;49.878;8.142;2024-02-14T01:04:52;100243.06;;;9.25;85.48
66560;BME280;53413;49.878;8.142;2024-02-14T01:07:17;100243.00;;;9.27;85.54
66560;BME280;53413;49.878;8.142;2024-02-14T01:09:42;100247.50;;;9.21;85.16
66560;BME280;53413;49.878;8.142;2024-02-14T01:12:08;100238.06;;;9.17;85.55
66560;BME280;53413;49.878;8.142;2024-02-14T01:14:33;100244.22;;;9.15;85.92
66560;BME280;53413;49.878;8.142;2024-02-14T01:16:58;100241.72;;;9.10;86.55
66560;BME280;53413;49.878;8.142;2024-02-14T01:19:24;100242.59;;;9.11;86.44
66560;BME280;53413;49.878;8.142;2024-02-14T01:21:53;100241.72;;;9.10;86.75
66560;BME280;53413;49.878;8.142;2024-02-14T01:24:19;100244.47;;;9.07;86.50
66560;BME280;53413;49.878;8.142;2024-02-14T01:26:44;100234.97;;;9.03;86.34
66560;BME280;53413;49.878;8.142;2024-02-14T01:29:09;100244.56;;;9.02;86.71
66560;BME280;53413;49.878;8.142;2024-02-14T01:31:35;100239.44;;;8.99;86.96
66560;BME280;53413;49.878;8.142;2024-02-14T01:34:00;100240.34;;;8.97;86.95
66560;BME280;53413;49.878;8.142;2024-02-14T01:36:30;100243.97;;;8.92;87.61
66560;BME280;53413;49.878;8.142;2024-02-14T01:38:55;100239.59;;;8.93;88.27
66560;BME280;53413;49.878;8.142;2024-02-14T01:41:21;100239.69;;;8.90;87.87
66560;BME280;53413;49.878;8.142;2024-02-14T01:43:47;100239.00;;;8.83;87.98
66560;BME280;53413;49.878;8.142;2024-02-14T01:46:12;100235.84;;;8.72;88.34
66560;BME280;53413;49.878;8.142;2024-02-14T01:48:38;100242.19;;;8.61;88.95
66560;BME280;53413;49.878;8.142;2024-02-14T01:51:05;100237.25;;;8.51;90.00
66560;BME280;53413;49.878;8.142;2024-02-14T01:53:33;100233.97;;;8.41;90.29
66560;BME280;53413;49.878;8.142;2024-02-14T01:56:00;100236.66;;;8.38;90.97
66560;BME280;53413;49.878;8.142;2024-02-14T01:58:26;100234.94;;;8.38;90.95
66560;BME280;53413;49.878;8.142;2024-02-14T02:00:53;100224.44;;;8.40;91.34
66560;BME280;53413;49.878;8.142;2024-02-14T02:03:25;100214.81;;;8.42;91.46
66560;BME280;53413;49.878;8.142;2024-02-14T02:05:53;100207.81;;;8.42;91.48
66560;BME280;53413;49.878;8.142;2024-02-14T02:08:20;100207.94;;;8.38;92.10
66560;BME280;53413;49.878;8.142;2024-02-14T02:10:46;100200.09;;;8.38;92.34
66560;BME280;53413;49.878;8.142;2024-02-14T02:13:12;100194.81;;;8.41;92.51
66560;BME280;53413;49.878;8.142;2024-02-14T02:15:37;100195.63;;;8.43;93.07
66560;BME280;53413;49.878;8.142;2024-02-14T02:18:03;100193.84;;;8.43;92.60
66560;BME280;53413;49.878;8.142;2024-02-14T02:20:34;100193.03;;;8.43;92.34
66560;BME280;53413;49.878;8.142;2024-02-14T02:22:59;100199.88;;;8.47;92.61
66560;BME280;53413;49.878;8.142;2024-02-14T02:25:25;100203.31;;;8.49;92.84
66560;BME280;53413;49.878;8.142;2024-02-14T02:27:52;100207.50;;;8.56;92.26
66560;BME280;53413;49.878;8.142;2024-02-14T02:30:17;100199.34;;;8.67;92.14
66560;BME280;53413;49.878;8.142;2024-02-14T02:32:42;100210.50;;;8.74;92.04
66560;BME280;53413;49.878;8.142;2024-02-14T02:35:08;100205.94;;;8.82;91.86
66560;BME280;53413;49.878;8.142;2024-02-14T02:37:35;100214.41;;;8.90;91.27
66560;BME280;53413;49.878;8.142;2024-02-14T02:40:00;100218.56;;;8.98;91.10
66560;BME280;53413;49.878;8.142;2024-02-14T02:42:26;100215.03;;;9.00;90.56
66560;BME280;53413;49.878;8.142;2024-02-14T02:44:51;100214.91;;;9.03;90.99
66560;BME280;53413;49.878;8.142;2024-02-14T02:47:16;100219.22;;;9.04;90.58
66560;BME280;53413;49.878;8.142;2024-02-14T02:49:43;100216.47;;;9.09;90.94
66560;BME280;53413;49.878;8.142;2024-02-14T02:52:10;100218.13;;;9.13;91.13
66560;BME280;53413;49.878;8.142;2024-02-14T02:54:35;100216.25;;;9.18;91.05
66560;BME280;53413;49.878;8.142;2024-02-14T02:57:01;100212.63;;;9.22;90.77
66560;BME280;53413;49.878;8.142;2024-02-14T02:59:28;100211.63;;;9.27;90.60
66560;BME280;53413;49.878;8.142;2024-02-14T03:01:55;100212.38;;;9.32;89.96
66560;BME280;53413;49.878;8.142;2024-02-14T03:04:20;100219.25;;;9.34;89.79
66560;BME280;53413;49.878;8.142;2024-02-14T03:06:46;100225.25;;;9.38;89.69
66560;BME280;53413;49.878;8.142;2024-02-14T03:09:11;100214.66;;;9.43;89.35
66560;BME280;53413;49.878;8.142;2024-02-14T03:11:37;100228.47;;;9.46;89.07
66560;BME280;53413;49.878;8.142;2024-02-14T03:14:03;100223.09;;;9.51;88.98
66560;BME280;53413;49.878;8.142;2024-02-14T03:16:29;100230.88;;;9.54;88.78
66560;BME280;53413;49.878;8.142;2024-02-14T03:18:55;100217.75;;;9.55;88.91
66560;BME280;53413;49.878;8.142;2024-02-14T03:21:20;100226.44;;;9.56;88.30
66560;BME280;53413;49.878;8.142;2024-02-14T03:23:48;100215.09;;;9.57;88.50
66560;BME280;53413;49.878;8.142;2024-02-14T03:26:13;100219.44;;;9.57;88.56
66560;BME280;53413;49.878;8.142;2024-02-14T03:28:39;100217.75;;;9.55;88.25
66560;BME280;53413;49.878;8.142;2024-02-14T03:31:04;100221.28;;;9.54;88.51
66560;BME280;53413;49.878;8.142;2024-02-14T03:33:30;100225.50;;;9.59;88.63
66560;BME280;53413;49.878;8.142;2024-02-14T03:35:55;100228.22;;;9.55;88.16
66560;BME280;53413;49.878;8.142;2024-02-14T03:38:27;100220.22;;;9.60;88.33
66560;BME280;53413;49.878;8.142;2024-02-14T03:40:53;100222.31;;;9.49;89.14
66560;BME280;53413;49.878;8.142;2024-02-14T03:43:19;100225.03;;;9.44;89.63
66560;BME280;53413;49.878;8.142;2024-02-14T03:45:45;100221.81;;;9.36;89.78
66560;BME280;53413;49.878;8.142;2024-02-14T03:48:11;100219.63;;;9.20;89.91
66560;BME280;53413;49.878;8.142;2024-02-14T03:50:40;100215.78;;;9.04;91.15
66560;BME280;53413;49.878;8.142;2024-02-14T03:53:05;100238.69;;;8.96;91.59
66560;BME280;53413;49.878;8.142;2024-02-14T03:55:31;100234.56;;;8.87;91.98
66560;BME280;53413;49.878;8.142;2024-02-14T03:57:56;100245.91;;;8.84;92.22
66560;BME280;53413;49.878;8.142;2024-02-14T04:00:22;100245.84;;;8.87;92.59
66560;BME280;53413;49.878;8.142;2024-02-14T04:02:48;100247.50;;;8.91;92.66
66560;BME280;53413;49.878;8.142;2024-02-14T04:05:14;100249.22;;;8.92;93.05
66560;BME280;53413;49.878;8.142;2024-02-14T04:07:39;100239.66;;;8.91;93.06
66560;BME280;53413;49.878;8.142;2024-02-14T04:10:05;100249.97;;;8.96;92.67
66560;BME280;53413;49.878;8.142;2024-02-14T04:12:31;100241.94;;;9.02;93.33
66560;BME280;53413;49.878;8.142;2024-02-14T04:14:57;100256.56;;;9.09;93.44
66560;BME280;53413;49.878;8.142;2024-02-14T04:17:22;100254.81;;;9.10;93.82
66560;BME280;53413;49.878;8.142;2024-02-14T04:19:49;100251.41;;;9.08;94.86
66560;BME280;53413;49.878;8.142;2024-02-14T04:22:14;100253.13;;;9.07;95.81
66560;BME280;53413;49.878;8.142;2024-02-14T04:24:39;100252.25;;;9.08;95.97
66560;BME280;53413;49.878;8.142;2024-02-14T04:27:05;100253.06;;;9.11;95.88
66560;BME280;53413;49.878;8.142;2024-02-14T04:29:30;100257.25;;;9.16;96.24
66560;BME280;53413;49.878;8.142;2024-02-14T04:32:01;100254.56;;;9.19;96.34
66560;BME280;53413;49.878;8.142;2024-02-14T04:34:27;100260.59;;;9.21;96.62
66560;BME280;53413;49.878;8.142;2024-02-14T04:36:52;100257.19;;;9.19;96.99
66560;BME280;53413;49.878;8.142;2024-02-14T04:39:18;100247.63;;;9.18;97.29
66560;BME280;53413;49.878;8.142;2024-02-14T04:41:44;100256.31;;;9.19;97.73
66560;BME280;53413;49.878;8.142;2024-02-14T04:44:09;100256.25;;;9.20;97.81
66560;BME280;53413;49.878;8.142;2024-02-14T04:46:35;100243.19;;;9.20;98.30
66560;BME280;53413;49.878;8.142;2024-02-14T04:49:02;100241.38;;;9.22;98.23
66560;BME280;53413;49.878;8.142;2024-02-14T04:51:30;100239.59;;;9.24;98.67
66560;BME280;53413;49.878;8.142;2024-02-14T04:53:59;100241.38;;;9.22;99.32
66560;BME280;53413;49.878;8.142;2024-02-14T04:56:26;100238.75;;;9.22;99.32
66560;BME280;53413;49.878;8.142;2024-02-14T04:58:55;100228.38;;;9.21;99.56
66560;BME280;53413;49.878;8.142;2024-02-14T05:01:20;100230.22;;;9.17;100.00
66560;BME280;53413;49.878;8.142;2024-02-14T05:03:46;100238.06;;;9.17;100.00
66560;BME280;53413;49.878;8.142;2024-02-14T05:06:11;100224.16;;;9.15;100.00
66560;BME280;53413;49.878;8.142;2024-02-14T05:08:37;100236.25;;;9.19;100.00
66560;BME280;53413;49.878;8.142;2024-02-14T05:11:02;100234.44;;;9.21;100.00
66560;BME280;53413;49.878;8.142;2024-02-14T05:13:29;100241.25;;;9.27;100.00
66560;BME280;53413;49.878;8.142;2024-02-14T05:15:55;100247.25;;;9.31;100.00
66560;BME280;53413;49.878;8.142;2024-02-14T05:18:20;100256.81;;;9.32;100.00
66560;BME280;53413;49.878;8.142;2024-02-14T05:20:46;100254.16;;;9.33;100.00
66560;BME280;53413;49.878;8.142;2024-02-14T05:23:11;100243.63;;;9.36;100.00
66560;BME280;53413;49.878;8.142;2024-02-14T05:25:36;100247.88;;;9.39;100.00
66560;BME280;53413;49.878;8.142;2024-02-14T05:28:02;100247.84;;;9.40;100.00
66560;BME280;53413;49.878;8.142;2024-02-14T05:30:27;100243.28;;;9.47;100.00
66560;BME280;53413;49.878;8.142;2024-02-14T05:32:53;100245.06;;;9.47;100.00
66560;BME280;53413;49.878;8.142;2024-02-14T05:35:18;100247.69;;;9.45;100.00
66560;BME280;53413;49.878;8.142;2024-02-14T05:37:45;100240.66;;;9.47;100.00
66560;BME280;53413;49.878;8.142;2024-02-14T05:40:14;100241.56;;;9.46;100.00
66560;BME280;53413;49.878;8.142;2024-02-14T05:42:40;100247.69;;;9.45;100.00
66560;BME280;53413;49.878;8.142;2024-02-14T05:45:05;100256.56;;;9.41;100.00
66560;BME280;53413;49.878;8.142;2024-02-14T05:47:31;100261.78;;;9.41;100.00
66560;BME280;53413;49.878;8.142;2024-02-14T05:49:56;100252.16;;;9.42;100.00
66560;BME280;53413;49.878;8.142;2024-02-14T05:52:22;100256.50;;;9.43;100.00
66560;BME280;53413;49.878;8.142;2024-02-14T05:54:47;100258.25;;;9.42;100.00
66560;BME280;53413;49.878;8.142;2024-02-14T05:57:12;100250.44;;;9.40;100.00
66560;BME280;53413;49.878;8.142;2024-02-14T05:59:38;100252.22;;;9.40;100.00
66560;BME280;53413;49.878;8.142;2024-02-14T06:02:03;100257.41;;;9.42;100.00
66560;BME280;53413;49.878;8.142;2024-02-14T06:04:30;100261.78;;;9.41;100.00
66560;BME280;53413;49.878;8.142;2024-02-14T06:06:56;100252.31;;;9.37;100.00
66560;BME280;53413;49.878;8.142;2024-02-14T06:09:21;100265.38;;;9.37;100.00
66560;BME280;53413;49.878;8.142;2024-02-14T06:11:46;100254.09;;;9.35;100.00
66560;BME280;53413;49.878;8.142;2024-02-14T06:14:12;100252.38;;;9.34;100.00
66560;BME280;53413;49.878;8.142;2024-02-14T06:16:38;100256.81;;;9.32;100.00
66560;BME280;53413;49.878;8.142;2024-02-14T06:19:04;100261.13;;;9.33;100.00
66560;BME280;53413;49.878;8.142;2024-02-14T06:21:30;100268.06;;;9.34;100.00
66560;BME280;53413;49.878;8.142;2024-02-14T06:23:55;100266.28;;;9.36;100.00
66560;BME280;53413;49.878;8.142;2024-02-14T06:26:20;100268.00;;;9.37;100.00
66560;BME280;53413;49.878;8.142;2024-02-14T06:28:46;100278.41;;;9.38;100.00
66560;BME280;53413;49.878;8.142;2024-02-14T06:31:11;100267.00;;;9.41;100.00
66560;BME280;53413;49.878;8.142;2024-02-14T06:33:37;100279.22;;;9.40;100.00
66560;BME280;53413;49.878;8.142;2024-02-14T06:36:03;100274.88;;;9.39;100.00
66560;BME280;53413;49.878;8.142;2024-02-14T06:38:28;100273.16;;;9.38;100.00
66560;BME280;53413;49.878;8.142;2024-02-14T06:40:54;100280.94;;;9.42;100.00
66560;BME280;53413;49.878;8.142;2024-02-14T06:43:19;100282.59;;;9.44;100.00
66560;BME280;53413;49.878;8.142;2024-02-14T06:45:45;100287.81;;;9.46;100.00
66560;BME280;53413;49.878;8.142;2024-02-14T06:48:11;100293.84;;;9.48;100.00
66560;BME280;53413;49.878;8.142;2024-02-14T06:50:36;100289.38;;;9.51;100.00
66560;BME280;53413;49.878;8.142;2024-02-14T06:53:01;100301.56;;;9.52;100.00
66560;BME280;53413;49.878;8.142;2024-02-14T06:55:27;100304.94;;;9.56;100.00
66560;BME280;53413;49.878;8.142;2024-02-14T06:57:52;100306.78;;;9.52;100.00
66560;BME280;53413;49.878;8.142;2024-02-14T07:00:19;100305.84;;;9.55;100.00
66560;BME280;53413;49.878;8.142;2024-02-14T07:02:45;100306.59;;;9.59;100.00
66560;BME280;53413;49.878;8.142;2024-02-14T07:05:13;100298.59;;;9.63;100.00
66560;BME280;53413;49.878;8.142;2024-02-14T07:07:40;100312.47;;;9.67;100.00
66560;BME280;53413;49.878;8.142;2024-02-14T07:10:06;100301.13;;;9.68;100.00
66560;BME280;53413;49.878;8.142;2024-02-14T07:12:32;100315.78;;;9.74;100.00
66560;BME280;53413;49.878;8.142;2024-02-14T07:14:57;100321.66;;;9.80;100.00
66560;BME280;53413;49.878;8.142;2024-02-14T07:17:23;100319.81;;;9.84;100.00
66560;BME280;53413;49.878;8.142;2024-02-14T07:19:48;100323.28;;;9.84;100.00
66560;BME280;53413;49.878;8.142;2024-02-14T07:22:15;100331.09;;;9.86;100.00
66560;BME280;53413;49.878;8.142;2024-02-14T07:24:41;100331.88;;;9.90;100.00
66560;BME280;53413;49.878;8.142;2024-02-14T07:27:08;100330.91;;;9.92;100.00
66560;BME280;53413;49.878;8.142;2024-02-14T07:29:33;100317.75;;;9.94;100.00
66560;BME280;53413;49.878;8.142;2024-02-14T07:32:01;100323.72;;;9.99;100.00
66560;BME280;53413;49.878;8.142;2024-02-14T07:34:26;100323.63;;;10.02;100.00
66560;BME280;53413;49.878;8.142;2024-02-14T07:36:52;100328.88;;;10.02;100.00
66560;BME280;53413;49.878;8.142;2024-02-14T07:39:17;100333.22;;;10.03;100.00
66560;BME280;53413;49.878;8.142;2024-02-14T07:41:43;100325.28;;;10.05;100.00
66560;BME280;53413;49.878;8.142;2024-02-14T07:44:08;100331.28;;;10.08;100.00
66560;BME280;53413;49.878;8.142;2024-02-14T07:46:33;100331.06;;;10.16;100.00
66560;BME280;53413;49.878;8.142;2024-02-14T07:48:59;100329.94;;;10.23;100.00
66560;BME280;53413;49.878;8.142;2024-02-14T07:51:24;100335.00;;;10.29;100.00
66560;BME280;53413;49.878;8.142;2024-02-14T07:53:50;100344.38;;;10.38;100.00
66560;BME280;53413;49.878;8.142;2024-02-14T07:56:16;100344.06;;;10.47;100.00
66560;BME280;53413;49.878;8.142;2024-02-14T07:58:43;100342.09;;;10.54;100.00
66560;BME280;53413;49.878;8.142;2024-02-14T08:01:09;100344.72;;;10.54;100.00
66560;BME280;53413;49.878;8.142;2024-02-14T08:03:34;100344.75;;;10.53;100.00
66560;BME280;53413;49.878;8.142;2024-02-14T08:05:59;100344.63;;;10.57;100.00
66560;BME280;53413;49.878;8.142;2024-02-14T08:08:26;100343.66;;;10.60;100.00
66560;BME280;53413;49.878;8.142;2024-02-14T08:10:52;100347.28;;;10.56;100.00
66560;BME280;53413;49.878;8.142;2024-02-14T08:13:18;100344.81;;;10.51;100.00
66560;BME280;53413;49.878;8.142;2024-02-14T08:15:43;100349.31;;;10.47;100.00
66560;BME280;53413;49.878;8.142;2024-02-14T08:18:08;100347.28;;;10.56;100.00
66560;BME280;53413;49.878;8.142;2024-02-14T08:20:34;100354.66;;;10.71;100.00
66560;BME280;53413;49.878;8.142;2024-02-14T08:22:59;100351.88;;;10.76;100.00
66560;BME280;53413;49.878;8.142;2024-02-14T08:25:25;100348.28;;;10.78;100.00
66560;BME280;53413;49.878;8.142;2024-02-14T08:27:51;100348.09;;;10.85;100.00
66560;BME280;53413;49.878;8.142;2024-02-14T08:30:17;100342.31;;;11.00;100.00
66560;BME280;53413;49.878;8.142;2024-02-14T08:32:42;100335.63;;;11.17;100.00
66560;BME280;53413;49.878;8.142;2024-02-14T08:35:08;100336.31;;;11.22;100.00
66560;BME280;53413;49.878;8.142;2024-02-14T08:37:35;100337.88;;;11.28;100.00
66560;BME280;53413;49.878;8.142;2024-02-14T08:40:02;100340.75;;;11.20;100.00
66560;BME280;53413;49.878;8.142;2024-02-14T08:42:31;100354.41;;;11.30;100.00
66560;BME280;53413;49.878;8.142;2024-02-14T08:44:56;100345.56;;;11.32;100.00
66560;BME280;53413;49.878;8.142;2024-02-14T08:47:22;100355.59;;;11.21;100.00
66560;BME280;53413;49.878;8.142;2024-02-14T08:49:47;100355.53;;;11.22;100.00
66560;BME280;53413;49.878;8.142;2024-02-14T08:52:12;100348.28;;;11.29;100.00
66560;BME280;53413;49.878;8.142;2024-02-14T08:54:38;100349.41;;;11.47;100.00
66560;BME280;53413;49.878;8.142;2024-02-14T08:57:04;100346.38;;;11.58;100.00
66560;BME280;53413;49.878;8.142;2024-02-14T08:59:30;100341.78;;;11.65;100.00
66560;BME280;53413;49.878;8.142;2024-02-14T09:01:55;100336.81;;;11.79;100.00
66560;BME280;53413;49.878;8.142;2024-02-14T09:04:21;100350.91;;;12.02;100.00
66560;BME280;53413;49.878;8.142;2024-02-14T09:06:46;100349.47;;;12.15;100.00
66560;BME280;53413;49.878;8.142;2024-02-14T09:09:12;100353.41;;;12.27;100.00
66560;BME280;53413;49.878;8.142;2024-02-14T09:11:39;100365.84;;;12.22;100.00
66560;BME280;53413;49.878;8.142;2024-02-14T09:14:06;100362.13;;;12.06;100.00
66560;BME280;53413;49.878;8.142;2024-02-14T09:16:32;100357.19;;;11.98;100.00
66560;BME280;53413;49.878;8.142;2024-02-14T09:18:59;100355.44;;;11.97;100.00
66560;BME280;53413;49.878;8.142;2024-02-14T09:21:24;100368.41;;;12.01;100.00
66560;BME280;53413;49.878;8.142;2024-02-14T09:23:50;100360.31;;;12.08;100.00
66560;BME280;53413;49.878;8.142;2024-02-14T09:26:15;100367.03;;;12.15;100.00
66560;BME280;53413;49.878;8.142;2024-02-14T09:28:43;100365.84;;;12.22;100.00
66560;BME280;53413;49.878;8.142;2024-02-14T09:31:09;100362.72;;;12.36;100.00
66560;BME280;53413;49.878;8.142;2024-02-14T09:33:37;100357.59;;;12.54;100.00
66560;BME280;53413;49.878;8.142;2024-02-14T09:36:03;100364.47;;;12.78;100.00
66560;BME280;53413;49.878;8.142;2024-02-14T09:38:29;100355.31;;;13.09;100.00
66560;BME280;53413;49.878;8.142;2024-02-14T09:40:58;100361.88;;;13.41;100.00
66560;BME280;53413;49.878;8.142;2024-02-14T09:43:38;100361.22;;;13.75;100.00
66560;BME280;53413;49.878;8.142;2024-02-14T09:46:08;100365.91;;;13.88;99.02
66560;BME280;53413;49.878;8.142;2024-02-14T09:48:34;100348.81;;;13.96;97.94
66560;BME280;53413;49.878;8.142;2024-02-14T09:51:00;100358.97;;;14.04;97.62
66560;BME280;53413;49.878;8.142;2024-02-14T09:53:28;100364.06;;;14.45;94.91
66560;BME280;53413;49.878;8.142;2024-02-14T09:55:54;100368.22;;;14.32;94.27
66560;BME280;53413;49.878;8.142;2024-02-14T09:58:20;100359.38;;;14.33;94.29
66560;BME280;53413;49.878;8.142;2024-02-14T10:00:46;100357.41;;;14.56;92.73
66560;BME280;53413;49.878;8.142;2024-02-14T10:03:12;100366.22;;;14.37;92.74
66560;BME280;53413;49.878;8.142;2024-02-14T10:05:37;100375.50;;;14.08;93.53
66560;BME280;53413;49.878;8.142;2024-02-14T10:08:03;100377.44;;;13.85;95.18
66560;BME280;53413;49.878;8.142;2024-02-14T10:10:31;100373.66;;;13.52;96.96
66560;BME280;53413;49.878;8.142;2024-02-14T10:12:57;100372.31;;;13.21;97.96
66560;BME280;53413;49.878;8.142;2024-02-14T10:15:23;100373.13;;;13.03;98.93
66560;BME280;53413;49.878;8.142;2024-02-14T10:17:48;100369.41;;;12.86;100.00
66560;BME280;53413;49.878;8.142;2024-02-14T10:20:17;100369.13;;;12.72;100.00
66560;BME280;53413;49.878;8.142;2024-02-14T10:22:42;100388.53;;;12.69;100.00
66560;BME280;53413;49.878;8.142;2024-02-14T10:25:09;100377.63;;;12.78;100.00
66560;BME280;53413;49.878;8.142;2024-02-14T10:27:39;100386.84;;;12.89;100.00
66560;BME280;53413;49.878;8.142;2024-02-14T10:30:08;100387.84;;;12.64;100.00
66560;BME280;53413;49.878;8.142;2024-02-14T10:32:35;100404.63;;;12.61;100.00
66560;BME280;53413;49.878;8.142;2024-02-14T10:35:04;100395.13;;;12.57;100.00
66560;BME280;53413;49.878;8.142;2024-02-14T10:37:30;100401.19;;;12.59;100.00
66560;BME280;53413;49.878;8.142;2024-02-14T10:39:56;100393.38;;;12.58;100.00
66560;BME280;53413;49.878;8.142;2024-02-14T10:42:23;100390.84;;;12.77;100.00
66560;BME280;53413;49.878;8.142;2024-02-14T10:44:48;100396.91;;;13.00;100.00
66560;BME280;53413;49.878;8.142;2024-02-14T10:47:19;100391.94;;;13.14;100.00
66560;BME280;53413;49.878;8.142;2024-02-14T10:49:46;100396.06;;;13.20;100.00
66560;BME280;53413;49.878;8.142;2024-02-14T10:52:15;100402.91;;;13.24;100.00
66560;BME280;53413;49.878;8.142;2024-02-14T10:54:43;100394.84;;;13.29;100.00
66560;BME280;53413;49.878;8.142;2024-02-14T10:57:11;100392.91;;;13.32;100.00
66560;BME280;53413;49.878;8.142;2024-02-14T10:59:41;100398.03;;;13.35;100.00
66560;BME280;53413;49.878;8.142;2024-02-14T11:02:07;100393.88;;;13.30;100.00
66560;BME280;53413;49.878;8.142;2024-02-14T11:04:33;100385.56;;;13.41;100.00
66560;BME280;53413;49.878;8.142;2024-02-14T11:06:58;100388.38;;;13.57;100.00
66560;BME280;53413;49.878;8.142;2024-02-14T11:09:36;100379.53;;;13.58;100.00
66560;BME280;53413;49.878;8.142;2024-02-14T11:12:01;100378.16;;;13.49;100.00
66560;BME280;53413;49.878;8.142;2024-02-14T11:14:31;100370.06;;;13.53;100.00
66560;BME280;53413;49.878;8.142;2024-02-14T11:16:59;100378.84;;;13.73;100.00
66560;BME280;53413;49.878;8.142;2024-02-14T11:19:31;100376.84;;;13.97;100.00
66560;BME280;53413;49.878;8.142;2024-02-14T11:22:17;100373.66;;;13.91;100.00
66560;BME280;53413;49.878;8.142;2024-02-14T11:24:45;100369.13;;;13.94;99.30
66560;BME280;53413;49.878;8.142;2024-02-14T11:27:11;100380.41;;;13.96;99.67
66560;BME280;53413;49.878;8.142;2024-02-14T11:29:39;100379.66;;;13.94;99.00
66560;BME280;53413;49.878;8.142;2024-02-14T11:32:06;100382.91;;;13.80;99.61
66560;BME280;53413;49.878;8.142;2024-02-14T11:34:33;100379.47;;;13.59;100.00
66560;BME280;53413;49.878;8.142;2024-02-14T11:36:59;100388.25;;;13.39;100.00
66560;BME280;53413;49.878;8.142;2024-02-14T11:39:25;100389.41;;;13.32;100.00
66560;BME280;53413;49.878;8.142;2024-02-14T11:41:50;100386.53;;;13.38;100.00
66560;BME280;53413;49.878;8.142;2024-02-14T11:44:16;100379.97;;;13.28;100.00
66560;BME280;53413;49.878;8.142;2024-02-14T11:46:41;100377.03;;;13.34;100.00
66560;BME280;53413;49.878;8.142;2024-02-14T11:49:07;100378.50;;;13.41;100.00
66560;BME280;53413;49.878;8.142;2024-02-14T11:51:33;100385.16;;;13.50;100.00
66560;BME280;53413;49.878;8.142;2024-02-14T11:54:01;100382.38;;;13.53;100.00
66560;BME280;53413;49.878;8.142;2024-02-14T11:56:37;100388.38;;;13.57;100.00
66560;BME280;53413;49.878;8.142;2024-02-14T11:59:06;100375.16;;;13.58;100.00
66560;BME280;53413;49.878;8.142;2024-02-14T12:01:36;100373.16;;;13.63;100.00
66560;BME280;53413;49.878;8.142;2024-02-14T12:04:04;100366.13;;;13.64;100.00
66560;BME280;53413;49.878;8.142;2024-02-14T12:06:31;100376.53;;;13.46;100.00
66560;BME280;53413;49.878;8.142;2024-02-14T12:09:00;100373.81;;;13.48;100.00
66560;BME280;53413;49.878;8.142;2024-02-14T12:11:33;100370.72;;;13.59;100.00
66560;BME280;53413;49.878;8.142;2024-02-14T12:14:02;100360.19;;;13.59;100.00
66560;BME280;53413;49.878;8.142;2024-02-14T12:16:30;100366.50;;;13.54;100.00
66560;BME280;53413;49.878;8.142;2024-02-14T12:19:04;100365.47;;;13.59;100.00
66560;BME280;53413;49.878;8.142;2024-02-14T12:21:36;100368.75;;;13.64;100.00
66560;BME280;53413;49.878;8.142;2024-02-14T12:24:12;100360.28;;;13.76;100.00
66560;BME280;53413;49.878;8.142;2024-02-14T12:26:40;100353.38;;;13.93;100.00
66560;BME280;53413;49.878;8.142;2024-02-14T12:29:06;100351.38;;;13.98;100.00
66560;BME280;53413;49.878;8.142;2024-02-14T12:31:34;100356.69;;;14.15;100.00
66560;BME280;53413;49.878;8.142;2024-02-14T12:34:00;100358.25;;;14.20;100.00
66560;BME280;53413;49.878;8.142;2024-02-14T12:36:28;100354.56;;;14.24;100.00
66560;BME280;53413;49.878;8.142;2024-02-14T12:38:56;100356.34;;;14.23;100.00
66560;BME280;53413;49.878;8.142;2024-02-14T12:41:22;100359.63;;;14.28;100.00
66560;BME280;53413;49.878;8.142;2024-02-14T12:43:49;100353.78;;;14.22;100.00
66560;BME280;53413;49.878;8.142;2024-02-14T12:46:14;100348.97;;;14.12;100.00